Trujillo Alto, PR

11:28 PM AST on May 23, 2015 (GMT -0400)
Cupey Carr 199/844 | | Change Station
CLOSE
Current Station
Personal Weather Station
Location: San Juan, SAN JUAN
Elevation: 348 ft
Nearby Weather Stations

Elev 348 ft 18.36 °N, 66.04 °W | Updated 10 minutes ago

Clear
Clear
78.3 °F
Feels Like 81 °F
N
0.0
Wind Variable Wind from ESE

Today
High -- | Low -- °F
--% Chance of Precip.
Yesterday
High -- | Low -- °F
Precip. -- in
5:48 AM 6:53 PM
Waxing Crescent, 35% visible
Pressure 30.11 in
Visibility 10.0 miles
Clouds Clear
Heat Index 81 °F
Dew Point 74 °F
Humidity 86%
Rainfall in
Snow Depth Not available.
UV 0 out of 12
Pollen Not available.
Air Quality Not available.
Flu Activity Local Activity
METAR TJSJ 240256Z 08011KT 10SM CLR 27/23 A3011 RMK AO2 SLP194 T02720233 50005

More Conditions Fewer Conditions

Pressure 30.11 in
Visibility 10.0 miles
Clouds Clear
Heat Index 81 °F
Dew Point 74 °F
Humidity 86%
Rainfall in
Snow Depth Not available.
UV 0 out of 12
Pollen Not available.
Air Quality Not available.
Flu Activity Local Activity
METAR TJSJ 240256Z 08011KT 10SM CLR 27/23 A3011 RMK AO2 SLP194 T02720233 50005

More Conditions Fewer Conditions

10-Day Weather Forecast

Almanac

Astronomy

May. 23, 2015 Rise Set
Actual Time
Civil Twilight
Nautical Twilight
Astronomical Twilight
Moon
Length of Visible Light
Length of Day
Tomorrow will be .
, % of the Moon is Illuminated

Today's Extremes

State Highs State Lows

Community

WunderPhotos

Upload Photos

1,823,673 photos uploaded!

WunderBlogs® & News

Nearby

Air Quality

  Air Quality AQ Index Pollutant
Not available.

Snow Depth

Station Depth Elevation

Earthquake Activity

City Distance Mag. Time & Date
Minimum magnitude displayed is 2.5.

Coastal Water Temperatures

Place Temperature

Stations

Nearby Weather Stations

Station Location Temp. Windchill Dew Point Humidity Wind Precip. Elev Updated Type